sensor_id;sensor_type;location;lat;lon;timestamp;pressure;altitude;pressure_sealevel;temperature;humidity
71565;BME280;59397;50.952;14.502;2022-11-20T00:02:54;966.79;;;-5.54;91.15
71565;BME280;59397;50.952;14.502;2022-11-20T00:22:22;966.68;;;-5.81;89.83
71565;BME280;59397;50.952;14.502;2022-11-20T00:41:48;966.76;;;-6.60;95.08
71565;BME280;59397;50.952;14.502;2022-11-20T01:01:20;966.77;;;-6.82;93.19
71565;BME280;59397;50.952;14.502;2022-11-20T01:20:48;966.88;;;-6.97;92.75
71565;BME280;59397;50.952;14.502;2022-11-20T01:40:18;966.76;;;-6.60;90.09
71565;BME280;59397;50.952;14.502;2022-11-20T01:59:49;966.64;;;-6.80;87.33
71565;BME280;59397;50.952;14.502;2022-11-20T02:19:20;966.74;;;-6.85;90.27
71565;BME280;59397;50.952;14.502;2022-11-20T02:38:50;966.44;;;-6.83;88.40
71565;BME280;59397;50.952;14.502;2022-11-20T02:58:23;966.37;;;-6.58;87.80
71565;BME280;59397;50.952;14.502;2022-11-20T03:17:53;966.28;;;-6.91;87.11
71565;BME280;59397;50.952;14.502;2022-11-20T03:37:24;966.13;;;-6.68;89.35
71565;BME280;59397;50.952;14.502;2022-11-20T03:56:53;966.39;;;-7.16;91.01
71565;BME280;59397;50.952;14.502;2022-11-20T04:16:23;966.43;;;-7.03;88.75
71565;BME280;59397;50.952;14.502;2022-11-20T04:35:54;966.27;;;-7.06;89.96
71565;BME280;59397;50.952;14.502;2022-11-20T04:55:24;966.24;;;-7.43;88.21
71565;BME280;59397;50.952;14.502;2022-11-20T05:14:55;966.09;;;-7.65;87.56
71565;BME280;59397;50.952;14.502;2022-11-20T05:34:24;966.12;;;-7.20;88.40
71565;BME280;59397;50.952;14.502;2022-11-20T05:53:53;965.99;;;-7.29;86.15
71565;BME280;59397;50.952;14.502;2022-11-20T06:13:23;965.94;;;-7.33;87.93
71565;BME280;59397;50.952;14.502;2022-11-20T06:32:54;965.82;;;-7.19;88.38
71565;BME280;59397;50.952;14.502;2022-11-20T06:52:28;965.87;;;-6.15;91.86
71565;BME280;59397;50.952;14.502;2022-11-20T07:12:01;965.84;;;-5.71;94.15
71565;BME280;59397;50.952;14.502;2022-11-20T07:31:32;965.67;;;-5.47;100.00
71565;BME280;59397;50.952;14.502;2022-11-20T07:51:04;965.47;;;-5.27;100.00
71565;BME280;59397;50.952;14.502;2022-11-20T08:10:35;965.35;;;-4.85;100.00
71565;BME280;59397;50.952;14.502;2022-11-20T08:30:07;965.37;;;-5.08;100.00
71565;BME280;59397;50.952;14.502;2022-11-20T08:49:38;965.40;;;-4.87;100.00
71565;BME280;59397;50.952;14.502;2022-11-20T09:09:08;965.14;;;-4.48;100.00
71565;BME280;59397;50.952;14.502;2022-11-20T09:28:40;965.07;;;-4.62;100.00
71565;BME280;59397;50.952;14.502;2022-11-20T09:48:18;965.08;;;-4.26;100.00
71565;BME280;59397;50.952;14.502;2022-11-20T10:07:45;965.11;;;-4.19;100.00
71565;BME280;59397;50.952;14.502;2022-11-20T10:27:20;965.03;;;-3.87;100.00
71565;BME280;59397;50.952;14.502;2022-11-20T10:46:48;964.93;;;-3.41;98.01
71565;BME280;59397;50.952;14.502;2022-11-20T11:06:20;964.71;;;-3.52;96.41
71565;BME280;59397;50.952;14.502;2022-11-20T11:25:55;964.64;;;-3.66;93.41
71565;BME280;59397;50.952;14.502;2022-11-20T11:45:21;964.45;;;-3.40;91.64
71565;BME280;59397;50.952;14.502;2022-11-20T12:04:54;964.21;;;-3.34;92.76
71565;BME280;59397;50.952;14.502;2022-11-20T12:44:00;963.78;;;-2.85;95.65
71565;BME280;59397;50.952;14.502;2022-11-20T13:23:00;963.50;;;-2.90;96.89
71565;BME280;59397;50.952;14.502;2022-11-20T13:42:31;963.63;;;-3.02;98.81
71565;BME280;59397;50.952;14.502;2022-11-20T14:02:03;963.58;;;-2.82;99.53
71565;BME280;59397;50.952;14.502;2022-11-20T14:21:33;963.52;;;-3.02;100.00
71565;BME280;59397;50.952;14.502;2022-11-20T14:41:06;963.42;;;-2.84;100.00
71565;BME280;59397;50.952;14.502;2022-11-20T15:00:37;963.50;;;-2.84;100.00
71565;BME280;59397;50.952;14.502;2022-11-20T15:20:09;963.44;;;-3.01;100.00
71565;BME280;59397;50.952;14.502;2022-11-20T15:39:39;963.22;;;-2.97;100.00
71565;BME280;59397;50.952;14.502;2022-11-20T15:59:11;963.20;;;-2.96;100.00
71565;BME280;59397;50.952;14.502;2022-11-20T16:18:41;963.26;;;-2.90;100.00
71565;BME280;59397;50.952;14.502;2022-11-20T16:38:12;963.30;;;-3.00;100.00
71565;BME280;59397;50.952;14.502;2022-11-20T16:57:42;963.41;;;-3.05;100.00
71565;BME280;59397;50.952;14.502;2022-11-20T17:17:11;963.41;;;-3.84;100.00
71565;BME280;59397;50.952;14.502;2022-11-20T17:36:42;963.25;;;-3.93;100.00
71565;BME280;59397;50.952;14.502;2022-11-20T17:56:13;963.20;;;-3.98;100.00
71565;BME280;59397;50.952;14.502;2022-11-20T18:15:43;963.15;;;-4.43;100.00
71565;BME280;59397;50.952;14.502;2022-11-20T18:35:11;963.16;;;-4.50;100.00
71565;BME280;59397;50.952;14.502;2022-11-20T18:54:40;963.23;;;-5.27;100.00
71565;BME280;59397;50.952;14.502;2022-11-20T19:14:10;963.26;;;-5.30;100.00
71565;BME280;59397;50.952;14.502;2022-11-20T19:33:38;963.05;;;-6.26;100.00
71565;BME280;59397;50.952;14.502;2022-11-20T19:53:07;963.01;;;-6.11;100.00
71565;BME280;59397;50.952;14.502;2022-11-20T20:12:36;962.97;;;-6.78;99.21
71565;BME280;59397;50.952;14.502;2022-11-20T20:32:05;962.87;;;-6.84;98.18
71565;BME280;59397;50.952;14.502;2022-11-20T20:51:37;962.97;;;-7.39;97.75
71565;BME280;59397;50.952;14.502;2022-11-20T21:11:06;962.63;;;-6.99;96.09
71565;BME280;59397;50.952;14.502;2022-11-20T21:30:40;962.29;;;-6.59;98.59
71565;BME280;59397;50.952;14.502;2022-11-20T21:50:11;962.07;;;-6.63;95.58
71565;BME280;59397;50.952;14.502;2022-11-20T22:09:42;961.74;;;-7.58;96.13
71565;BME280;59397;50.952;14.502;2022-11-20T22:29:12;961.30;;;-6.81;95.29
71565;BME280;59397;50.952;14.502;2022-11-20T22:48:40;960.99;;;-6.62;99.96
71565;BME280;59397;50.952;14.502;2022-11-20T23:08:12;960.85;;;-6.14;100.00
71565;BME280;59397;50.952;14.502;2022-11-20T23:27:48;960.50;;;-5.41;100.00
71565;BME280;59397;50.952;14.502;2022-11-20T23:47:20;960.52;;;-4.89;100.00
